createdAt,value
2023-05-19T00:03:35.000Z,94.20
2023-05-19T00:08:38.279Z,94.40
2023-05-19T00:13:40.428Z,94.50
2023-05-19T00:18:43.291Z,94.50
2023-05-19T00:23:45.074Z,94.80
2023-05-19T00:28:46.845Z,94.90
2023-05-19T00:33:48.876Z,95.10
2023-05-19T00:38:51.308Z,94.70
2023-05-19T00:43:53.328Z,94.70
2023-05-19T00:48:55.139Z,94.60
2023-05-19T00:53:57.572Z,94.80
2023-05-19T00:58:59.820Z,94.80
2023-05-19T01:04:01.968Z,95.10
2023-05-19T01:09:04.155Z,95.20
2023-05-19T01:14:06.349Z,95.70
2023-05-19T01:19:20.966Z,95.90
2023-05-19T01:24:30.487Z,96.20
2023-05-19T01:29:58.267Z,96.80
2023-05-19T01:35:02.591Z,97.00
2023-05-19T01:40:08.274Z,97.40
2023-05-19T01:45:10.666Z,97.70
2023-05-19T01:50:12.599Z,97.80
2023-05-19T01:55:14.575Z,98.40
2023-05-19T02:00:29.535Z,98.20
2023-05-19T02:06:03.322Z,98.20
2023-05-19T02:11:22.942Z,98.20
2023-05-19T02:16:28.740Z,98.20
2023-05-19T02:21:31.136Z,98.50
2023-05-19T02:26:32.924Z,98.40
2023-05-19T02:31:34.760Z,98.20
2023-05-19T02:36:36.711Z,98.00
2023-05-19T02:41:39.205Z,97.90
2023-05-19T02:46:41.390Z,98.10
2023-05-19T02:51:43.256Z,98.20
2023-05-19T02:56:45.339Z,98.20
2023-05-19T03:01:47.697Z,98.60
2023-05-19T03:06:50.179Z,98.60
2023-05-19T03:11:51.956Z,98.70
2023-05-19T03:16:53.906Z,98.80
2023-05-19T03:21:56.479Z,98.70
2023-05-19T03:26:58.235Z,98.10
2023-05-19T03:32:00.480Z,98.20
2023-05-19T03:37:02.417Z,98.40
2023-05-19T03:42:04.697Z,98.30
2023-05-19T03:47:07.071Z,97.80
2023-05-19T03:52:20.854Z,97.80
2023-05-19T03:57:34.234Z,97.90
2023-05-19T04:02:36.065Z,98.00
2023-05-19T04:07:38.066Z,98.00
2023-05-19T04:12:39.908Z,98.10
2023-05-19T04:17:42.012Z,97.70
2023-05-19T04:22:44.461Z,97.70
2023-05-19T04:27:46.251Z,97.80
2023-05-19T04:32:50.930Z,97.90
2023-05-19T04:37:55.819Z,97.80
2023-05-19T04:43:03.206Z,97.30
2023-05-19T04:48:07.857Z,97.70
2023-05-19T04:53:11.439Z,97.30
2023-05-19T04:58:13.956Z,96.90
2023-05-19T05:03:16.436Z,96.40
2023-05-19T05:08:23.223Z,96.30
2023-05-19T05:13:25.700Z,96.30
2023-05-19T05:18:28.557Z,96.10
2023-05-19T05:23:30.743Z,96.30
2023-05-19T05:28:32.897Z,96.00
2023-05-19T05:33:35.308Z,96.30
2023-05-19T05:38:37.368Z,96.30
2023-05-19T05:43:39.184Z,95.80
2023-05-19T05:48:42.690Z,95.30
2023-05-19T05:53:51.426Z,95.10
2023-05-19T05:58:53.807Z,94.90
2023-05-19T06:03:56.280Z,94.50
2023-05-19T06:08:59.350Z,93.90
2023-05-19T06:14:02.431Z,93.40
2023-05-19T06:19:25.308Z,92.60
2023-05-19T06:24:27.702Z,91.50
2023-05-19T06:29:29.632Z,90.90
2023-05-19T06:34:35.890Z,87.20
2023-05-19T06:39:38.260Z,80.10
2023-05-19T06:44:40.126Z,81.80
2023-05-19T06:49:46.747Z,83.10
2023-05-19T06:54:49.548Z,86.00
2023-05-19T06:59:51.997Z,86.20
2023-05-19T07:04:54.055Z,85.30
2023-05-19T07:09:56.990Z,86.40
2023-05-19T07:15:00.684Z,86.40
2023-05-19T07:20:06.753Z,86.60
2023-05-19T07:25:09.338Z,86.10
2023-05-19T07:30:12.418Z,87.10
2023-05-19T07:35:14.384Z,86.20
2023-05-19T07:40:16.173Z,86.60
2023-05-19T07:45:18.152Z,87.90
2023-05-19T07:50:20.454Z,85.50
2023-05-19T07:55:23.272Z,86.00
2023-05-19T08:00:25.298Z,87.60
2023-05-19T08:05:27.104Z,85.80
2023-05-19T08:10:29.000Z,84.80
2023-05-19T08:15:30.775Z,84.90
2023-05-19T08:20:32.968Z,84.50
2023-05-19T08:25:35.097Z,83.50
2023-05-19T08:30:36.986Z,83.20
2023-05-19T08:35:38.800Z,83.20
2023-05-19T08:40:46.611Z,82.50
2023-05-19T08:45:48.492Z,81.00
2023-05-19T08:51:20.566Z,80.00
2023-05-19T08:56:24.189Z,80.80
2023-05-19T09:01:28.893Z,83.10
2023-05-19T09:06:32.393Z,82.60
2023-05-19T09:11:35.773Z,81.70
2023-05-19T09:16:38.356Z,79.20
2023-05-19T09:21:40.221Z,80.70
2023-05-19T09:26:42.937Z,78.00
2023-05-19T09:31:52.285Z,77.90
2023-05-19T09:36:54.356Z,75.00
2023-05-19T09:41:58.651Z,75.50
2023-05-19T09:47:00.480Z,77.30
2023-05-19T09:52:05.946Z,80.60
2023-05-19T09:57:08.963Z,80.50
2023-05-19T10:02:21.348Z,82.30
2023-05-19T10:07:24.467Z,82.50
2023-05-19T10:12:27.164Z,83.50
2023-05-19T10:17:29.349Z,82.20
2023-05-19T10:22:31.227Z,82.40
2023-05-19T10:27:39.313Z,81.20
2023-05-19T10:32:44.437Z,79.80
2023-05-19T10:37:59.014Z,79.60
2023-05-19T10:43:30.938Z,79.70
2023-05-19T10:48:38.758Z,77.00
2023-05-19T10:53:46.828Z,76.90
2023-05-19T10:58:52.214Z,75.60
2023-05-19T11:03:57.346Z,77.60
2023-05-19T11:09:28.349Z,73.20
2023-05-19T11:14:36.310Z,70.80
2023-05-19T11:19:38.119Z,73.90
2023-05-19T11:24:53.384Z,72.10
2023-05-19T11:29:57.276Z,71.50
2023-05-19T11:35:00.185Z,69.00
2023-05-19T11:40:04.753Z,70.60
2023-05-19T11:45:08.071Z,70.30
2023-05-19T11:50:12.783Z,71.60
2023-05-19T11:55:22.210Z,71.80
2023-05-19T12:00:25.036Z,70.30
2023-05-19T12:05:28.755Z,69.20
2023-05-19T12:10:31.374Z,70.30
2023-05-19T12:15:33.596Z,67.70
2023-05-19T12:20:36.303Z,68.00
2023-05-19T12:25:38.535Z,67.80
2023-05-19T12:30:41.410Z,66.80
2023-05-19T12:35:43.386Z,67.30
2023-05-19T12:40:45.357Z,67.70
2023-05-19T12:45:47.110Z,65.50
2023-05-19T12:50:51.286Z,68.50
2023-05-19T12:55:53.465Z,66.10
2023-05-19T13:00:59.794Z,65.80
2023-05-19T13:06:01.656Z,67.50
2023-05-19T13:11:03.496Z,67.90
2023-05-19T13:16:05.927Z,67.70
2023-05-19T13:21:08.058Z,66.20
2023-05-19T13:26:12.682Z,68.80
2023-05-19T13:31:14.609Z,65.80
2023-05-19T13:36:16.480Z,67.00
2023-05-19T13:41:26.190Z,67.10
2023-05-19T13:46:40.902Z,67.60
2023-05-19T13:51:46.942Z,67.30
2023-05-19T13:56:48.846Z,67.90
2023-05-19T14:01:50.683Z,67.00
2023-05-19T14:06:52.464Z,67.50
2023-05-19T14:11:54.217Z,68.30
2023-05-19T14:16:56.221Z,67.00
2023-05-19T14:21:57.983Z,68.10
2023-05-19T14:26:59.733Z,68.20
2023-05-19T14:32:02.826Z,66.90
2023-05-19T14:37:05.654Z,67.60
2023-05-19T14:42:07.455Z,67.20
2023-05-19T14:47:11.344Z,66.70
2023-05-19T14:52:13.328Z,65.50
2023-05-19T14:57:15.250Z,68.00
2023-05-19T15:02:17.201Z,68.20
2023-05-19T15:07:19.051Z,68.90
2023-05-19T15:12:20.824Z,68.50
2023-05-19T15:17:22.745Z,68.90
2023-05-19T15:22:24.578Z,68.30
2023-05-19T15:27:26.763Z,70.60
2023-05-19T15:32:28.581Z,69.00
2023-05-19T15:37:30.375Z,68.70
2023-05-19T15:42:32.222Z,68.30
2023-05-19T15:47:34.113Z,69.80
2023-05-19T15:52:36.306Z,69.80
2023-05-19T15:57:38.126Z,69.60
2023-05-19T16:02:40.798Z,71.00
2023-05-19T16:07:42.632Z,71.60
2023-05-19T16:12:44.398Z,70.80
2023-05-19T16:17:46.209Z,71.30
2023-05-19T16:22:47.969Z,71.40
2023-05-19T16:27:50.293Z,70.50
2023-05-19T16:32:54.353Z,71.80
2023-05-19T16:37:56.139Z,72.80
2023-05-19T16:42:57.975Z,72.60
2023-05-19T16:47:59.783Z,72.30
2023-05-19T16:53:01.616Z,73.90
2023-05-19T16:58:03.447Z,73.10
2023-05-19T17:03:05.634Z,73.80
2023-05-19T17:08:07.602Z,73.80
2023-05-19T17:13:09.563Z,74.80
2023-05-19T17:18:12.632Z,74.90
2023-05-19T17:23:14.599Z,75.10
2023-05-19T17:28:16.477Z,75.50
2023-05-19T17:33:18.442Z,75.90
2023-05-19T17:38:20.314Z,76.10
2023-05-19T17:43:22.062Z,76.80
2023-05-19T17:48:23.856Z,77.80
2023-05-19T17:53:26.224Z,77.70
2023-05-19T17:58:28.847Z,78.50
2023-05-19T18:03:30.987Z,78.60
2023-05-19T18:08:33.388Z,78.80
2023-05-19T18:13:35.621Z,79.90
2023-05-19T18:18:40.022Z,80.20
2023-05-19T18:23:41.848Z,80.50
2023-05-19T18:28:43.875Z,80.60
2023-05-19T18:33:47.101Z,81.40
2023-05-19T18:38:50.097Z,82.30
2023-05-19T18:43:51.908Z,83.50
2023-05-19T18:48:53.681Z,83.90
2023-05-19T18:53:55.602Z,83.40
2023-05-19T18:58:57.651Z,83.80
2023-05-19T19:03:59.716Z,84.20
2023-05-19T19:09:01.624Z,84.30
2023-05-19T19:14:03.772Z,84.60
2023-05-19T19:19:05.661Z,84.90
2023-05-19T19:24:07.710Z,85.50
2023-05-19T19:29:09.706Z,85.90
2023-05-19T19:34:11.698Z,86.20
2023-05-19T19:39:13.796Z,87.10
2023-05-19T19:44:15.699Z,87.90
2023-05-19T19:49:17.623Z,88.70
2023-05-19T19:54:19.559Z,88.90
2023-05-19T19:59:21.367Z,89.70
2023-05-19T20:04:23.249Z,90.00
2023-05-19T20:09:25.264Z,90.40
2023-05-19T20:14:27.118Z,90.40
2023-05-19T20:19:29.094Z,90.90
2023-05-19T20:24:30.982Z,91.00
2023-05-19T20:29:32.801Z,91.40
2023-05-19T20:34:34.593Z,91.90
2023-05-19T20:39:36.441Z,92.20
2023-05-19T20:44:38.257Z,92.70
2023-05-19T20:49:40.066Z,93.10
2023-05-19T20:54:42.170Z,93.30
2023-05-19T20:59:43.965Z,93.70
2023-05-19T21:04:46.307Z,93.90
2023-05-19T21:09:50.367Z,94.20
2023-05-19T21:14:52.190Z,94.20
2023-05-19T21:19:57.779Z,94.70
2023-05-19T21:24:59.731Z,95.10
2023-05-19T21:30:02.008Z,95.70
2023-05-19T21:35:04.516Z,96.00
2023-05-19T21:40:08.054Z,96.10
2023-05-19T21:45:10.521Z,96.40
2023-05-19T21:50:15.696Z,96.60
2023-05-19T21:55:17.541Z,97.10
2023-05-19T22:00:19.463Z,97.70
2023-05-19T22:05:21.945Z,98.20
2023-05-19T22:10:24.288Z,98.40
2023-05-19T22:15:26.719Z,99.40
2023-05-19T22:20:28.512Z,99.80
2023-05-19T22:25:30.717Z,99.90
2023-05-19T22:30:32.785Z,99.90
2023-05-19T22:35:34.652Z,99.90
2023-05-19T22:40:36.625Z,99.90
2023-05-19T22:45:38.832Z,99.90
2023-05-19T22:50:40.696Z,99.90
2023-05-19T22:55:42.571Z,99.90
2023-05-19T23:00:44.343Z,99.90
2023-05-19T23:05:46.119Z,99.90
2023-05-19T23:10:48.008Z,99.90
2023-05-19T23:15:49.789Z,99.90
2023-05-19T23:20:51.561Z,99.90
2023-05-19T23:25:53.325Z,99.90
2023-05-19T23:30:55.433Z,99.90
2023-05-19T23:35:59.036Z,99.90
2023-05-19T23:41:00.937Z,99.90
2023-05-19T23:46:02.867Z,99.90
2023-05-19T23:51:05.082Z,99.90
2023-05-19T23:56:07.360Z,99.90
